Time;durP1;ratioP1;P1;durP2;ratioP2;P2;SDS_P1;SDS_P2;PMS_P1;PMS_P2;Temp;Humidity;BMP_temperature;BMP_pressure;BME280_temperature;BME280_humidity;BME280_pressure;Samples;Min_cycle;Max_cycle;Signal;HPM_P1;HPM_P2
2021/12/04 00:00:21;;;;;;;0.60;0.60;;;4.50;99.90;;;;;;5056025;28;20521;-42
2021/12/04 00:02:47;;;;;;;0.50;0.50;;;4.50;99.90;;;;;;5055458;28;20195;-41
2021/12/04 00:05:12;;;;;;;0.73;0.70;;;4.50;99.90;;;;;;5055680;28;20276;-45
2021/12/04 00:07:39;;;;;;;0.80;0.80;;;4.50;99.90;;;;;;5037409;28;20201;-47
2021/12/04 00:10:06;;;;;;;0.77;0.77;;;4.40;99.90;;;;;;5056740;28;20180;-46
2021/12/04 00:12:34;;;;;;;0.70;0.70;;;4.50;99.90;;;;;;5055948;28;20230;-47
2021/12/04 00:15:02;;;;;;;0.70;0.70;;;4.40;99.90;;;;;;5037324;28;20200;-41
2021/12/04 00:17:28;;;;;;;1.47;0.90;;;4.50;99.90;;;;;;5055272;28;20657;-40
2021/12/04 00:19:55;;;;;;;1.03;0.90;;;4.50;99.90;;;;;;5054779;28;20667;-43
2021/12/04 00:22:20;;;;;;;1.23;0.80;;;4.40;99.90;;;;;;5055037;28;20196;-47
2021/12/04 00:24:46;;;;;;;1.20;0.83;;;4.50;99.90;;;;;;5054788;28;20183;-47
2021/12/04 00:27:13;;;;;;;0.90;0.90;;;4.50;99.90;;;;;;5054554;28;20180;-46
2021/12/04 00:29:39;;;;;;;2.57;0.80;;;4.50;99.90;;;;;;5038294;28;20177;-47
2021/12/04 00:32:14;;;;;;;0.60;0.60;;;4.40;99.90;;;;;;5056492;28;20224;-47
2021/12/04 00:34:44;;;;;;;0.60;0.60;;;4.40;99.90;;;;;;5055731;28;20183;-48
2021/12/04 00:37:28;;;;;;;0.80;0.80;;;4.40;99.90;;;;;;5055560;28;20261;-48
2021/12/04 00:50:52;;;;;;;0.80;0.67;;;4.40;99.90;;;;;;5025972;28;20200;-47
2021/12/04 00:53:19;;;;;;;0.50;0.50;;;4.40;99.90;;;;;;5040593;28;20204;-48
2021/12/04 00:55:45;;;;;;;0.80;0.70;;;4.40;99.90;;;;;;5058509;28;20187;-47
2021/12/04 00:58:11;;;;;;;0.70;0.70;;;4.40;99.90;;;;;;5060872;28;20211;-48
2021/12/04 01:00:39;;;;;;;0.80;0.70;;;4.40;99.90;;;;;;5042361;28;20180;-47
2021/12/04 01:03:05;;;;;;;1.00;0.90;;;4.40;99.90;;;;;;5041261;28;20200;-48
2021/12/04 01:05:31;;;;;;;1.53;0.90;;;4.40;99.90;;;;;;5059770;28;20184;-48
2021/12/04 01:07:57;;;;;;;1.10;1.00;;;4.40;99.90;;;;;;5058433;28;20184;-48
2021/12/04 01:10:22;;;;;;;1.17;1.00;;;4.40;99.90;;;;;;5058704;28;20173;-47
2021/12/04 01:12:50;;;;;;;2.37;0.90;;;4.40;99.90;;;;;;5040333;28;20199;-47
2021/12/04 01:15:16;;;;;;;0.73;0.73;;;4.40;99.90;;;;;;5058695;28;20168;-46
2021/12/04 01:17:42;;;;;;;1.40;0.70;;;4.40;99.90;;;;;;5057200;28;20593;-49
2021/12/04 01:20:08;;;;;;;1.30;0.77;;;4.40;99.90;;;;;;5057921;28;20210;-47
2021/12/04 01:22:34;;;;;;;0.70;0.63;;;4.40;99.90;;;;;;5057713;28;20565;-46
2021/12/04 01:25:01;;;;;;;3.07;1.10;;;4.30;99.90;;;;;;5039392;28;20187;-48
2021/12/04 01:27:27;;;;;;;0.87;0.83;;;4.30;99.90;;;;;;5057760;28;20168;-47
2021/12/04 01:29:52;;;;;;;1.10;0.90;;;4.30;99.90;;;;;;5039304;28;20251;-47
2021/12/04 01:32:18;;;;;;;1.00;0.90;;;4.30;99.90;;;;;;5057538;28;20199;-48
2021/12/04 01:34:44;;;;;;;0.87;0.87;;;4.30;99.90;;;;;;5057328;28;20191;-48
2021/12/04 01:37:10;;;;;;;1.07;0.90;;;4.30;99.90;;;;;;5058277;28;20169;-49
2021/12/04 01:39:36;;;;;;;1.00;0.93;;;4.30;99.90;;;;;;5066768;28;20184;-48
2021/12/04 01:42:01;;;;;;;2.17;0.90;;;4.30;99.90;;;;;;5041096;28;20261;-49
2021/12/04 01:44:28;;;;;;;2.90;0.90;;;4.30;99.90;;;;;;5040101;28;20658;-46
2021/12/04 01:46:56;;;;;;;0.90;0.90;;;4.30;99.90;;;;;;5057830;28;20235;-47
2021/12/04 01:49:23;;;;;;;1.10;0.90;;;4.30;99.90;;;;;;5057448;28;20211;-48
2021/12/04 01:51:49;;;;;;;0.80;0.80;;;4.30;99.90;;;;;;5039629;28;20208;-48
2021/12/04 01:54:15;;;;;;;0.93;0.83;;;4.30;99.90;;;;;;5038913;28;20208;-49
2021/12/04 01:56:40;;;;;;;1.00;0.90;;;4.30;99.90;;;;;;5056762;28;20177;-49
2021/12/04 01:59:06;;;;;;;3.77;1.37;;;4.20;99.90;;;;;;5056991;28;20195;-47
2021/12/04 02:01:33;;;;;;;2.37;1.77;;;4.30;99.90;;;;;;5056572;28;20203;-47
2021/12/04 02:03:59;;;;;;;2.93;1.97;;;4.30;99.90;;;;;;5039127;28;20195;-47
2021/12/04 02:06:24;;;;;;;2.80;2.20;;;4.30;99.90;;;;;;5056850;28;20638;-47
2021/12/04 02:08:51;;;;;;;2.80;1.90;;;4.30;99.90;;;;;;5056649;28;20551;-48
2021/12/04 02:11:16;;;;;;;3.53;2.13;;;4.20;99.90;;;;;;5056432;28;20192;-47
2021/12/04 02:13:42;;;;;;;1.90;1.43;;;4.20;99.90;;;;;;5038513;28;20220;-48
2021/12/04 02:16:16;;;;;;;3.17;1.40;;;4.30;99.90;;;;;;5056499;28;20637;-47
2021/12/04 02:18:42;;;;;;;2.13;1.73;;;4.30;99.90;;;;;;5038799;28;20637;-49
2021/12/04 02:21:08;;;;;;;5.07;1.50;;;4.20;99.90;;;;;;5056896;28;20202;-47
2021/12/04 02:23:34;;;;;;;2.53;1.50;;;4.20;99.90;;;;;;5038942;28;20183;-48
2021/12/04 02:25:59;;;;;;;3.00;1.20;;;4.20;99.90;;;;;;5056623;28;20183;-48
2021/12/04 02:28:25;;;;;;;2.70;1.43;;;4.20;99.90;;;;;;5056140;28;20218;-49
2021/12/04 02:30:51;;;;;;;1.27;1.03;;;4.20;99.90;;;;;;5038032;28;20650;-48
2021/12/04 02:33:18;;;;;;;2.40;1.37;;;4.20;99.90;;;;;;5054123;28;20208;-48
2021/12/04 02:35:48;;;;;;;1.63;1.30;;;4.20;99.90;;;;;;5054693;28;20653;-46
2021/12/04 02:38:14;;;;;;;10.63;5.73;;;4.20;99.90;;;;;;5055445;28;20169;-48
2021/12/04 02:40:43;;;;;;;6.23;5.07;;;4.20;99.90;;;;;;5055433;28;20265;-48
2021/12/04 02:43:09;;;;;;;7.70;5.73;;;4.20;99.90;;;;;;5056253;28;20212;-48
2021/12/04 02:45:35;;;;;;;11.70;7.97;;;4.20;99.90;;;;;;5055943;28;20247;-47
2021/12/04 02:48:01;;;;;;;5.23;3.93;;;4.10;99.90;;;;;;5056219;28;20176;-49
2021/12/04 02:50:27;;;;;;;5.43;3.90;;;4.10;99.90;;;;;;5056834;28;20536;-47
2021/12/04 02:52:53;;;;;;;11.50;7.47;;;4.10;99.90;;;;;;5038305;28;20211;-47
2021/12/04 02:55:19;;;;;;;11.23;5.90;;;4.10;99.90;;;;;;5055443;28;20522;-47
2021/12/04 02:57:45;;;;;;;7.03;3.93;;;4.10;99.90;;;;;;5055711;28;20184;-47
2021/12/04 03:00:17;;;;;;;10.27;6.33;;;4.10;99.90;;;;;;5055607;28;20187;-48
2021/12/04 03:02:43;;;;;;;5.00;3.17;;;4.10;99.90;;;;;;5037145;28;20200;-48
2021/12/04 03:05:10;;;;;;;3.53;2.20;;;4.10;99.90;;;;;;5037281;28;20238;-48
2021/12/04 03:07:36;;;;;;;4.20;2.63;;;4.10;99.90;;;;;;5055225;28;20184;-48
2021/12/04 03:10:03;;;;;;;2.57;1.97;;;4.10;99.90;;;;;;5054763;28;20180;-48
2021/12/04 03:12:29;;;;;;;5.10;1.60;;;4.10;99.90;;;;;;5054471;28;20550;-49
2021/12/04 03:14:55;;;;;;;2.53;1.03;;;4.10;99.90;;;;;;5054746;28;20203;-48
2021/12/04 03:17:22;;;;;;;1.33;1.13;;;4.10;99.90;;;;;;5037135;28;20184;-47
2021/12/04 03:19:50;;;;;;;2.43;1.10;;;4.00;99.90;;;;;;5055060;28;20311;-47
2021/12/04 03:22:18;;;;;;;1.40;1.30;;;4.10;99.90;;;;;;5054431;28;20195;-47
2021/12/04 03:24:44;;;;;;;1.60;1.10;;;4.10;99.90;;;;;;5054758;28;20188;-48
2021/12/04 03:27:11;;;;;;;4.03;0.90;;;4.00;99.90;;;;;;5054729;28;20267;-46
2021/12/04 03:29:57;;;;;;;2.37;1.07;;;4.00;99.90;;;;;;5054350;28;20176;-47
2021/12/04 03:32:56;;;;;;;1.93;1.13;;;4.10;99.90;;;;;;5054207;28;20192;-47
2021/12/04 03:40:52;;;;;;;1.40;0.80;;;4.00;99.90;;;;;;5054397;28;20251;-47
2021/12/04 03:43:18;;;;;;;1.20;0.90;;;4.00;99.90;;;;;;5053845;28;20164;-47
2021/12/04 03:45:46;;;;;;;2.03;1.00;;;4.00;99.90;;;;;;5053836;28;20186;-48
2021/12/04 03:48:56;;;;;;;0.60;0.60;;;4.00;99.90;;;;;;5036070;28;20617;-47
2021/12/04 03:51:02;;;;;;;1.33;0.90;;;4.00;99.90;;;;;;5047310;28;20218;-47
2021/12/04 03:53:28;;;;;;;2.37;0.97;;;4.00;99.90;;;;;;5054512;28;20204;-47
2021/12/04 03:55:54;;;;;;;0.93;0.87;;;4.00;99.90;;;;;;5053964;28;20653;-47
2021/12/04 03:58:21;;;;;;;2.10;1.17;;;4.00;99.90;;;;;;5053799;28;20183;-47
2021/12/04 04:00:47;;;;;;;3.00;0.87;;;4.00;99.90;;;;;;5053915;28;20180;-47
2021/12/04 04:03:13;;;;;;;1.67;0.90;;;4.00;99.90;;;;;;5053979;28;20192;-46
2021/12/04 04:05:38;;;;;;;0.90;0.90;;;4.00;99.90;;;;;;5036368;28;20180;-46
2021/12/04 04:08:04;;;;;;;2.40;1.10;;;4.00;99.90;;;;;;5035732;28;20181;-48
2021/12/04 04:10:30;;;;;;;1.90;0.90;;;4.00;99.90;;;;;;5036332;28;20273;-46
2021/12/04 04:12:56;;;;;;;1.20;1.10;;;4.00;99.90;;;;;;5053910;28;20204;-48
2021/12/04 04:15:22;;;;;;;1.20;1.10;;;4.00;99.90;;;;;;5053934;28;20183;-48
2021/12/04 04:17:49;;;;;;;1.30;1.20;;;4.00;99.90;;;;;;5054001;28;20184;-48
2021/12/04 04:20:17;;;;;;;1.30;1.20;;;4.00;99.90;;;;;;5035800;28;20271;-43
2021/12/04 04:22:45;;;;;;;1.40;1.20;;;4.00;99.90;;;;;;5052707;28;20203;-40
2021/12/04 04:25:12;;;;;;;1.50;1.40;;;4.00;99.90;;;;;;5055393;28;20226;-42
2021/12/04 04:27:38;;;;;;;3.57;1.50;;;4.00;99.90;;;;;;5056602;28;20196;-41
2021/12/04 04:30:10;;;;;;;1.43;1.33;;;4.10;99.90;;;;;;5056594;28;20251;-42
2021/12/04 04:32:36;;;;;;;1.57;1.30;;;4.10;99.90;;;;;;5056466;28;20626;-42
2021/12/04 04:35:09;;;;;;;2.93;1.50;;;4.00;99.90;;;;;;5056473;28;20208;-41
2021/12/04 04:37:53;;;;;;;1.50;1.30;;;4.00;99.90;;;;;;5038655;28;20608;-43
2021/12/04 04:57:21;;;;;;;1.77;1.67;;;4.10;99.90;;;;;;5056486;28;20191;-39
2021/12/04 04:59:59;;;;;;;2.80;1.50;;;4.00;99.90;;;;;;5056553;28;20190;-40
2021/12/04 05:10:13;;;;;;;2.27;1.87;;;4.10;99.90;;;;;;5052926;23;20203;-45
2021/12/04 05:11:04;;;;;;;2.63;2.07;;;4.00;99.90;;;;;;4999166;28;20189;-43
2021/12/04 05:13:30;;;;;;;2.43;2.07;;;4.00;99.90;;;;;;5016422;28;20198;-45
2021/12/04 05:15:58;;;;;;;3.47;1.90;;;4.00;99.90;;;;;;5016228;28;20184;-43
2021/12/04 05:21:04;;;;;;;2.30;2.10;;;4.00;99.90;;;;;;5016332;28;20762;-44
2021/12/04 05:23:49;;;;;;;2.27;2.07;;;4.00;99.90;;;;;;5016349;28;20166;-44
2021/12/04 05:26:18;;;;;;;2.43;2.00;;;4.00;99.90;;;;;;5016345;28;20166;-45
2021/12/04 05:28:45;;;;;;;2.60;2.40;;;4.00;99.90;;;;;;5016239;28;20639;-44
2021/12/04 05:31:11;;;;;;;3.07;2.17;;;4.00;99.90;;;;;;5015784;28;20610;-43
2021/12/04 05:33:39;;;;;;;2.97;2.10;;;4.00;99.90;;;;;;5016125;28;20297;-44
2021/12/04 05:36:05;;;;;;;4.63;2.50;;;4.00;99.90;;;;;;4998070;28;20607;-45
2021/12/04 05:38:30;;;;;;;2.37;2.17;;;4.00;99.90;;;;;;5016043;28;20534;-44
2021/12/04 05:40:56;;;;;;;5.30;2.60;;;4.00;99.90;;;;;;5015441;28;20200;-44
2021/12/04 05:43:22;;;;;;;3.53;2.17;;;4.00;99.90;;;;;;5016399;28;20170;-44
2021/12/04 05:46:37;;;;;;;2.67;2.40;;;4.00;99.90;;;;;;5015694;28;20773;-45
2021/12/04 05:49:05;;;;;;;3.20;1.87;;;3.90;99.90;;;;;;5009975;28;20194;-45
2021/12/04 05:52:01;;;;;;;3.50;2.40;;;4.00;99.90;;;;;;5015666;28;20200;-45
2021/12/04 05:54:33;;;;;;;2.00;1.80;;;3.90;99.90;;;;;;5014052;28;20209;-45
2021/12/04 05:56:59;;;;;;;2.40;2.20;;;3.90;99.90;;;;;;5015515;28;20176;-45
2021/12/04 05:59:25;;;;;;;2.30;1.93;;;4.00;99.90;;;;;;5015444;28;20220;-45
2021/12/04 06:01:51;;;;;;;5.63;2.20;;;3.90;99.90;;;;;;5015464;28;20213;-46
2021/12/04 06:04:17;;;;;;;2.70;2.07;;;3.90;99.90;;;;;;5015308;28;20194;-45
2021/12/04 06:06:45;;;;;;;3.23;2.33;;;3.90;99.90;;;;;;5015649;28;20182;-45
2021/12/04 06:09:11;;;;;;;2.67;2.20;;;3.90;99.90;;;;;;5015282;28;20170;-44
2021/12/04 06:11:37;;;;;;;2.67;2.40;;;4.00;99.90;;;;;;5015342;28;20201;-46
2021/12/04 06:14:04;;;;;;;2.93;2.40;;;3.90;99.90;;;;;;5015084;28;20256;-44
2021/12/04 06:16:30;;;;;;;2.20;2.00;;;3.90;99.90;;;;;;5015151;28;20188;-46
2021/12/04 06:18:58;;;;;;;2.27;2.07;;;3.90;99.90;;;;;;5015217;28;20174;-44
2021/12/04 06:24:08;;;;;;;2.00;1.80;;;3.90;99.90;;;;;;5016385;28;20204;-45
2021/12/04 06:26:35;;;;;;;1.80;1.70;;;3.90;99.90;;;;;;5016012;28;20188;-45
2021/12/04 06:29:01;;;;;;;2.10;1.90;;;3.90;99.90;;;;;;5015119;28;20260;-45
2021/12/04 06:31:27;;;;;;;2.20;1.90;;;3.90;99.90;;;;;;5013513;28;20236;-45
2021/12/04 06:33:53;;;;;;;3.00;2.20;;;3.90;99.90;;;;;;5014502;28;20204;-45
2021/12/04 06:36:21;;;;;;;2.30;2.10;;;3.80;99.90;;;;;;5014585;28;20184;-45
2021/12/04 06:38:48;;;;;;;2.47;2.00;;;3.90;99.90;;;;;;5014549;28;20609;-43
2021/12/04 06:41:13;;;;;;;2.00;1.90;;;3.90;99.90;;;;;;5014467;28;20197;-44
2021/12/04 06:43:45;;;;;;;3.57;2.10;;;3.90;99.90;;;;;;5014846;28;20182;-44
2021/12/04 06:46:11;;;;;;;2.20;2.00;;;3.80;99.90;;;;;;5014560;28;20166;-44
2021/12/04 06:48:49;;;;;;;2.37;1.97;;;3.90;99.90;;;;;;5013939;28;20640;-46
2021/12/04 06:51:39;;;;;;;2.77;2.07;;;3.80;99.90;;;;;;5015136;28;20544;-45
2021/12/04 06:54:15;;;;;;;1.97;1.77;;;3.80;99.90;;;;;;5014282;28;20281;-48
2021/12/04 06:56:42;;;;;;;2.60;2.00;;;3.80;99.90;;;;;;4998554;28;20158;-46
2021/12/04 06:59:13;;;;;;;2.03;1.87;;;3.80;99.90;;;;;;5014168;28;20666;-47
2021/12/04 07:01:39;;;;;;;2.10;1.87;;;3.80;99.90;;;;;;4996560;28;20567;-48
2021/12/04 07:04:06;;;;;;;2.10;1.90;;;3.80;99.90;;;;;;5014013;28;20205;-47
2021/12/04 07:06:32;;;;;;;2.60;2.40;;;3.80;99.90;;;;;;5013641;28;20185;-48
2021/12/04 07:08:58;;;;;;;4.30;3.43;;;3.80;99.90;;;;;;5014303;28;20189;-46
2021/12/04 07:11:24;;;;;;;4.13;3.47;;;3.80;99.90;;;;;;5014116;28;20574;-48
2021/12/04 07:13:50;;;;;;;3.93;3.27;;;3.90;99.90;;;;;;4996582;28;20692;-47
2021/12/04 07:16:18;;;;;;;5.60;4.03;;;3.80;99.90;;;;;;5014088;28;20185;-46
2021/12/04 07:18:44;;;;;;;5.67;4.63;;;3.80;99.90;;;;;;5012600;28;20181;-49
2021/12/04 07:21:10;;;;;;;5.03;4.00;;;3.80;99.90;;;;;;5012644;28;20197;-48
2021/12/04 07:23:37;;;;;;;4.00;3.00;;;3.80;99.90;;;;;;5014687;28;20317;-47
2021/12/04 07:26:04;;;;;;;3.90;3.00;;;3.80;99.90;;;;;;5012578;28;20177;-49
2021/12/04 07:28:30;;;;;;;2.37;2.17;;;3.90;99.90;;;;;;4996079;28;20208;-48
2021/12/04 07:30:55;;;;;;;2.40;1.90;;;3.90;99.90;;;;;;5013909;28;20206;-48
2021/12/04 07:33:21;;;;;;;2.23;2.03;;;3.90;99.90;;;;;;5013900;28;20565;-48
2021/12/04 07:35:47;;;;;;;1.90;1.70;;;3.90;99.90;;;;;;4995940;28;20178;-48
2021/12/04 07:38:14;;;;;;;4.63;1.80;;;3.90;99.90;;;;;;5012421;28;20178;-48
2021/12/04 07:40:41;;;;;;;5.07;1.90;;;3.90;99.90;;;;;;4995934;28;20181;-48
2021/12/04 07:43:06;;;;;;;1.93;1.77;;;3.90;99.90;;;;;;5013611;28;20165;-49
2021/12/04 07:45:32;;;;;;;2.50;2.00;;;3.90;99.90;;;;;;5013740;28;20667;-48
2021/12/04 07:47:58;;;;;;;3.03;2.07;;;3.90;99.90;;;;;;5012360;28;20268;-48
2021/12/04 07:50:24;;;;;;;4.30;2.63;;;3.90;99.90;;;;;;5013901;28;20267;-47
2021/12/04 07:53:00;;;;;;;4.27;2.50;;;3.90;99.90;;;;;;5018593;28;20202;-49
2021/12/04 07:55:26;;;;;;;2.97;2.07;;;3.90;99.90;;;;;;5012787;28;20240;-48
2021/12/04 07:57:52;;;;;;;2.67;2.13;;;4.00;99.90;;;;;;5013916;28;20265;-44
2021/12/04 08:00:19;;;;;;;1.87;1.70;;;4.00;99.90;;;;;;5023105;28;20671;-49
2021/12/04 08:02:46;;;;;;;2.20;1.83;;;3.90;99.90;;;;;;5024596;28;20209;-47
2021/12/04 08:05:14;;;;;;;2.80;2.20;;;4.00;99.90;;;;;;5024922;28;20596;-48
2021/12/04 08:07:40;;;;;;;2.63;2.03;;;4.00;99.90;;;;;;5023343;28;20184;-42
2021/12/04 08:10:09;;;;;;;4.97;2.47;;;4.00;99.90;;;;;;5023058;28;20197;-47
2021/12/04 08:12:36;;;;;;;3.77;2.40;;;4.00;99.90;;;;;;5021074;28;20204;-48
2021/12/04 08:15:06;;;;;;;7.33;3.87;;;4.00;99.90;;;;;;5028879;28;20202;-47
2021/12/04 08:17:32;;;;;;;4.30;2.50;;;4.00;99.90;;;;;;5006856;28;20261;-44
2021/12/04 08:20:05;;;;;;;4.17;2.30;;;4.10;99.90;;;;;;5025561;28;20197;-45
2021/12/04 08:22:35;;;;;;;4.73;2.10;;;4.10;99.90;;;;;;5027299;28;20224;-47
2021/12/04 08:25:06;;;;;;;3.53;2.07;;;4.10;99.90;;;;;;5028097;28;20173;-44
2021/12/04 08:27:31;;;;;;;3.97;2.57;;;4.10;99.90;;;;;;5026078;28;20201;-43
2021/12/04 08:29:57;;;;;;;5.03;2.93;;;4.10;99.90;;;;;;5024169;28;20177;-43
2021/12/04 08:32:23;;;;;;;6.67;3.23;;;4.20;99.90;;;;;;5024707;28;20190;-48
2021/12/04 08:34:51;;;;;;;4.13;2.40;;;4.20;99.90;;;;;;5026533;28;20252;-44
2021/12/04 08:37:17;;;;;;;5.87;2.50;;;4.30;99.90;;;;;;5024455;28;20173;-48
2021/12/04 08:39:53;;;;;;;5.43;2.30;;;4.30;99.90;;;;;;5024242;28;20169;-44
2021/12/04 08:42:21;;;;;;;4.40;2.40;;;4.30;99.90;;;;;;5028046;28;20216;-44
2021/12/04 08:44:49;;;;;;;7.40;3.17;;;4.30;99.90;;;;;;5024819;28;20170;-47
2021/12/04 08:47:15;;;;;;;6.27;3.20;;;4.40;99.90;;;;;;5020218;28;20182;-46
2021/12/04 08:49:41;;;;;;;6.17;3.37;;;4.40;99.90;;;;;;4999387;28;20312;-44
2021/12/04 08:52:08;;;;;;;7.53;3.20;;;4.40;99.90;;;;;;5016822;28;20235;-43
2021/12/04 08:54:34;;;;;;;5.97;2.77;;;4.50;99.90;;;;;;5026428;28;20610;-49
2021/12/04 08:57:04;;;;;;;8.47;3.00;;;4.50;99.90;;;;;;5007462;28;20193;-48
2021/12/04 08:59:33;;;;;;;4.63;2.27;;;4.50;99.90;;;;;;5026030;28;20245;-48
2021/12/04 09:02:02;;;;;;;4.53;2.20;;;4.60;99.90;;;;;;5027332;28;20232;-48
2021/12/04 09:04:35;;;;;;;3.87;2.43;;;4.60;99.90;;;;;;5024950;28;20257;-44
2021/12/04 09:07:05;;;;;;;6.13;1.87;;;4.60;99.90;;;;;;5026445;28;20153;-49
2021/12/04 09:09:31;;;;;;;5.67;2.00;;;4.60;99.90;;;;;;5027378;28;20178;-42
2021/12/04 09:12:08;;;;;;;6.37;2.63;;;4.70;99.90;;;;;;5026415;28;20178;-48
2021/12/04 09:14:36;;;;;;;3.93;2.00;;;4.70;99.90;;;;;;5028247;28;20256;-42
2021/12/04 09:17:10;;;;;;;3.40;2.03;;;4.80;99.90;;;;;;5027821;28;20639;-48
2021/12/04 09:19:38;;;;;;;2.27;2.07;;;4.80;99.90;;;;;;5027444;28;20158;-44
2021/12/04 09:22:08;;;;;;;5.20;2.20;;;4.90;99.90;;;;;;5026179;28;20193;-45
2021/12/04 09:24:44;;;;;;;2.53;2.33;;;4.90;99.90;;;;;;5027816;28;20200;-45
2021/12/04 09:28:18;;;;;;;3.50;2.57;;;4.90;99.90;;;;;;5027361;28;20190;-48
2021/12/04 09:30:21;;;;;;;3.37;2.50;;;5.00;99.90;;;;;;5015373;28;20173;-45
2021/12/04 10:00:29;;;;;;;2.60;2.30;;;5.10;99.90;;;;;;5026410;28;20262;-49
2021/12/04 10:19:03;;;;;;;3.43;2.07;;;5.40;99.90;;;;;;5027212;28;20169;-46
2021/12/04 10:21:45;;;;;;;2.60;2.20;;;5.40;99.90;;;;;;5027228;28;20225;-45
2021/12/04 10:32:44;;;;;;;2.43;2.03;;;5.50;99.90;;;;;;5025013;28;20210;-44
2021/12/04 10:35:22;;;;;;;4.33;1.73;;;5.50;99.90;;;;;;5008034;28;20201;-50
2021/12/04 10:37:59;;;;;;;2.37;1.90;;;5.60;99.90;;;;;;5024057;28;20192;-48
2021/12/04 10:40:38;;;;;;;2.77;2.20;;;5.60;99.90;;;;;;5001115;28;20181;-51
2021/12/04 10:43:20;;;;;;;3.60;2.00;;;5.60;99.90;;;;;;5021364;28;20167;-48
2021/12/04 10:45:54;;;;;;;2.77;2.07;;;5.60;99.90;;;;;;5017390;28;20183;-44
2021/12/04 10:48:24;;;;;;;2.63;2.10;;;5.60;99.90;;;;;;5016457;28;20168;-43
2021/12/04 10:53:48;;;;;;;4.23;3.07;;;5.60;99.90;;;;;;5015627;28;20350;-45
2021/12/04 11:37:50;;;;;;;3.60;2.27;;;5.80;99.90;;;;;;5015003;28;20167;-48
2021/12/04 11:40:31;;;;;;;4.47;2.20;;;5.90;99.90;;;;;;5000204;28;20181;-47
2021/12/04 11:43:04;;;;;;;2.30;2.10;;;5.90;99.90;;;;;;5013205;28;20198;-49
2021/12/04 11:46:00;;;;;;;2.37;1.90;;;5.90;99.90;;;;;;5014710;28;20183;-48
2021/12/04 11:48:35;;;;;;;5.43;2.00;;;5.90;99.90;;;;;;5030141;23;20232;-49
2021/12/04 11:51:02;;;;;;;2.87;2.30;;;6.00;99.90;;;;;;5037100;28;20223;-49
2021/12/04 11:53:31;;;;;;;2.17;1.97;;;6.00;99.90;;;;;;5035149;28;20673;-49
2021/12/04 11:55:57;;;;;;;2.23;2.03;;;6.10;99.90;;;;;;5053339;28;20176;-49
2021/12/04 11:58:32;;;;;;;4.43;2.23;;;6.10;99.90;;;;;;5053030;28;20184;-48
2021/12/04 12:01:02;;;;;;;2.80;2.20;;;6.10;99.90;;;;;;5035095;28;20256;-48
2021/12/04 12:03:30;;;;;;;2.20;1.97;;;6.20;99.90;;;;;;5053144;28;20164;-48
2021/12/04 12:06:06;;;;;;;4.43;1.97;;;6.30;99.90;;;;;;5036073;28;20186;-45
2021/12/04 12:08:33;;;;;;;2.20;2.00;;;6.30;99.90;;;;;;5052933;28;20640;-45
2021/12/04 12:11:23;;;;;;;3.80;2.10;;;6.30;99.90;;;;;;5053202;28;20224;-49
2021/12/04 12:13:51;;;;;;;4.00;2.00;;;6.30;99.90;;;;;;5042855;28;20750;-49
2021/12/04 12:16:20;;;;;;;3.10;2.40;;;6.30;99.90;;;;;;5052814;28;20186;-49
2021/12/04 12:18:55;;;;;;;2.40;2.00;;;6.30;99.90;;;;;;5035133;28;20658;-49
2021/12/04 12:21:27;;;;;;;2.13;1.93;;;6.30;99.90;;;;;;5053005;28;20271;-51
2021/12/04 12:24:22;;;;;;;4.03;2.00;;;6.30;99.90;;;;;;5053023;28;20157;-48
2021/12/04 12:36:02;;;;;;;3.87;1.97;;;6.10;99.90;;;;;;5053467;28;20190;-46
2021/12/04 12:38:52;;;;;;;4.13;1.80;;;6.10;99.90;;;;;;5052741;28;20522;-45
2021/12/04 12:41:34;;;;;;;2.37;1.80;;;6.10;99.90;;;;;;5053164;28;20198;-46
2021/12/04 12:44:24;;;;;;;2.33;1.70;;;6.00;99.90;;;;;;5034846;28;20175;-45
2021/12/04 12:47:16;;;;;;;3.10;2.27;;;6.00;99.90;;;;;;5054655;28;20172;-45
2021/12/04 12:49:45;;;;;;;2.43;1.80;;;6.00;99.90;;;;;;5056225;28;20203;-46
2021/12/04 12:52:22;;;;;;;3.10;1.83;;;6.00;99.90;;;;;;5056648;28;20202;-45
2021/12/04 12:55:04;;;;;;;2.17;1.93;;;6.00;99.90;;;;;;5056144;28;20186;-45
2021/12/04 12:57:39;;;;;;;2.00;1.80;;;6.10;99.90;;;;;;5038684;28;20178;-46
2021/12/04 13:11:48;;;;;;;4.33;2.13;;;6.10;99.90;;;;;;5058755;28;20210;-47
2021/12/04 13:14:50;;;;;;;2.17;1.97;;;6.10;99.90;;;;;;5058578;28;20557;-47
2021/12/04 13:17:23;;;;;;;2.10;1.90;;;6.10;99.90;;;;;;5042409;28;20206;-47
2021/12/04 13:19:52;;;;;;;2.50;1.90;;;6.10;99.90;;;;;;5039979;28;20178;-47
2021/12/04 13:22:21;;;;;;;1.97;1.70;;;6.10;99.90;;;;;;5039704;28;20194;-46
2021/12/04 13:24:50;;;;;;;2.20;2.00;;;6.10;99.90;;;;;;5039923;28;20317;-47
2021/12/04 13:29:49;;;;;;;22.93;10.60;;;6.10;99.90;;;;;;5057241;28;20179;-48
2021/12/04 13:32:17;;;;;;;17.63;9.73;;;6.10;99.90;;;;;;5056738;28;20213;-47
2021/12/04 13:34:44;;;;;;;4.80;3.83;;;6.10;99.90;;;;;;5038562;28;20199;-48
2021/12/04 13:37:11;;;;;;;5.60;3.87;;;6.10;99.90;;;;;;5055916;28;20179;-47
2021/12/04 13:39:41;;;;;;;3.77;2.53;;;6.10;99.90;;;;;;5056095;28;20581;-48
2021/12/04 13:42:07;;;;;;;2.67;2.00;;;6.00;99.90;;;;;;5056975;28;20205;-47
2021/12/04 13:44:34;;;;;;;2.30;2.10;;;6.10;99.90;;;;;;5056582;28;20236;-48
2021/12/04 13:47:04;;;;;;;2.60;2.13;;;6.10;99.90;;;;;;5039011;28;20675;-48
2021/12/04 13:49:39;;;;;;;3.47;2.37;;;6.00;99.90;;;;;;5056947;28;20187;-47
2021/12/04 13:52:09;;;;;;;4.47;2.07;;;6.10;99.90;;;;;;5039401;28;20197;-47
2021/12/04 13:54:41;;;;;;;3.30;3.00;;;6.00;99.90;;;;;;5057471;28;20206;-48
2021/12/04 13:57:09;;;;;;;7.30;5.43;;;6.00;99.90;;;;;;5038915;28;20183;-47
2021/12/04 13:59:35;;;;;;;7.67;5.13;;;6.00;99.90;;;;;;5057448;28;20574;-46
2021/12/04 14:02:00;;;;;;;9.37;8.30;;;6.00;99.90;;;;;;5057329;28;20219;-46
2021/12/04 14:04:26;;;;;;;8.70;7.90;;;6.00;99.90;;;;;;5057085;28;20234;-46
2021/12/04 14:06:56;;;;;;;5.60;5.10;;;6.00;99.90;;;;;;5057741;28;20211;-46
2021/12/04 14:09:28;;;;;;;6.80;6.20;;;5.90;99.90;;;;;;5056480;28;20715;-45
2021/12/04 14:11:54;;;;;;;7.47;6.77;;;5.90;99.90;;;;;;5055839;28;20242;-46
2021/12/04 14:14:24;;;;;;;5.87;5.33;;;5.90;99.90;;;;;;5055116;28;20195;-46
2021/12/04 14:16:53;;;;;;;9.20;6.33;;;5.80;99.90;;;;;;5055892;28;20664;-46
2021/12/04 14:19:27;;;;;;;5.53;5.00;;;5.80;99.90;;;;;;5037914;28;20538;-45
2021/12/04 14:22:20;;;;;;;4.73;4.33;;;5.70;99.90;;;;;;5037780;28;20211;-46
2021/12/04 14:24:54;;;;;;;6.17;4.33;;;5.70;99.90;;;;;;5052516;28;20249;-46
2021/12/04 14:27:24;;;;;;;5.40;4.90;;;5.70;99.90;;;;;;5055318;28;20664;-46
2021/12/04 14:29:54;;;;;;;5.20;4.70;;;5.60;99.90;;;;;;5055207;28;20210;-46
2021/12/04 14:32:30;;;;;;;7.33;6.70;;;5.50;99.90;;;;;;5054977;28;20203;-46
2021/12/04 14:35:05;;;;;;;6.00;5.40;;;5.50;99.90;;;;;;5054989;28;20187;-46
2021/12/04 14:37:38;;;;;;;6.13;3.63;;;5.50;99.90;;;;;;5055375;28;20236;-46
2021/12/04 14:40:07;;;;;;;6.37;5.77;;;5.40;99.90;;;;;;5055203;28;20179;-47
2021/12/04 14:42:33;;;;;;;7.60;6.80;;;5.40;99.90;;;;;;5056033;28;20286;-46
2021/12/04 14:45:04;;;;;;;9.90;8.90;;;5.40;99.90;;;;;;5037025;28;20679;-46
2021/12/04 14:47:35;;;;;;;4.77;3.80;;;5.30;99.90;;;;;;5054829;28;20210;-47
2021/12/04 14:50:06;;;;;;;3.57;2.90;;;5.30;99.90;;;;;;5054231;28;20757;-47
2021/12/04 14:52:34;;;;;;;4.53;2.97;;;5.30;99.90;;;;;;5054692;28;20278;-47
2021/12/04 14:55:16;;;;;;;4.77;3.00;;;5.30;99.90;;;;;;5055269;28;20242;-47
2021/12/04 14:57:43;;;;;;;2.03;1.73;;;5.30;99.90;;;;;;5037331;28;20177;-46
2021/12/04 15:00:13;;;;;;;4.43;2.90;;;5.20;99.90;;;;;;5055770;28;20194;-48
2021/12/04 15:02:39;;;;;;;4.27;2.90;;;5.20;99.90;;;;;;5055762;28;20203;-48
2021/12/04 15:05:06;;;;;;;5.77;3.27;;;5.20;99.90;;;;;;5055245;28;20183;-47
2021/12/04 15:07:33;;;;;;;4.53;3.03;;;5.20;99.90;;;;;;5055771;28;20178;-47
2021/12/04 15:10:04;;;;;;;3.77;2.67;;;5.20;99.90;;;;;;5055183;28;20194;-47
2021/12/04 15:12:34;;;;;;;3.43;2.20;;;5.10;99.90;;;;;;5055467;28;20203;-48
2021/12/04 15:15:04;;;;;;;2.17;1.80;;;5.10;99.90;;;;;;5055107;28;20289;-48
2021/12/04 15:17:33;;;;;;;3.27;2.10;;;5.10;99.90;;;;;;5037174;28;20175;-48
2021/12/04 15:20:02;;;;;;;2.07;1.70;;;5.10;99.90;;;;;;5055632;28;20573;-48
2021/12/04 15:22:34;;;;;;;1.60;1.50;;;5.10;99.90;;;;;;5056496;28;20203;-49
2021/12/04 15:25:01;;;;;;;2.03;1.70;;;5.10;99.90;;;;;;5045932;28;20171;-48
2021/12/04 15:27:29;;;;;;;2.03;1.77;;;5.10;99.90;;;;;;5055537;28;20706;-47
2021/12/04 15:29:56;;;;;;;1.77;1.57;;;5.10;99.90;;;;;;5037713;28;20192;-47
2021/12/04 15:32:25;;;;;;;4.73;2.13;;;5.10;99.90;;;;;;5055580;28;20274;-46
2021/12/04 15:35:10;;;;;;;3.60;3.20;;;5.10;99.90;;;;;;5055440;28;20209;-45
2021/12/04 15:37:41;;;;;;;3.63;3.07;;;5.10;99.90;;;;;;5055561;28;20213;-46
2021/12/04 15:40:23;;;;;;;4.53;3.27;;;5.20;99.90;;;;;;5053564;28;20302;-48
2021/12/04 15:43:05;;;;;;;2.57;2.33;;;5.20;99.90;;;;;;5053226;28;20190;-46
2021/12/04 15:45:41;;;;;;;4.23;3.47;;;5.20;99.90;;;;;;5035449;28;20176;-48
2021/12/04 15:48:42;;;;;;;4.17;3.43;;;5.20;99.90;;;;;;5053682;28;20162;-46
2021/12/04 15:53:54;;;;;;;2.57;1.93;;;5.30;99.90;;;;;;5053394;28;20245;-47
2021/12/04 15:56:54;;;;;;;6.07;3.30;;;5.30;99.90;;;;;;5053187;28;20182;-48
2021/12/04 15:59:30;;;;;;;4.43;3.40;;;5.40;99.90;;;;;;5052806;28;20207;-46